sensor_id;sensor_type;location;lat;lon;timestamp;temperature;humidity
22706;DHT22;11520;51.198;4.468;2023-03-01T00:00:00;1.90;99.90
22706;DHT22;11520;51.198;4.468;2023-03-01T00:02:25;1.80;99.90
22706;DHT22;11520;51.198;4.468;2023-03-01T00:04:53;1.80;99.90
22706;DHT22;11520;51.198;4.468;2023-03-01T00:07:20;1.80;99.90
22706;DHT22;11520;51.198;4.468;2023-03-01T00:09:45;1.70;99.90
22706;DHT22;11520;51.198;4.468;2023-03-01T00:12:12;1.70;99.90
22706;DHT22;11520;51.198;4.468;2023-03-01T00:14:37;1.70;99.90
22706;DHT22;11520;51.198;4.468;2023-03-01T00:17:03;1.80;99.90
22706;DHT22;11520;51.198;4.468;2023-03-01T00:19:29;1.70;99.90
22706;DHT22;11520;51.198;4.468;2023-03-01T00:21:54;1.70;99.90
22706;DHT22;11520;51.198;4.468;2023-03-01T00:24:20;1.70;99.90
22706;DHT22;11520;51.198;4.468;2023-03-01T00:26:46;1.70;99.90
22706;DHT22;11520;51.198;4.468;2023-03-01T00:29:14;1.70;99.90
22706;DHT22;11520;51.198;4.468;2023-03-01T00:31:39;1.70;99.90
22706;DHT22;11520;51.198;4.468;2023-03-01T00:34:07;1.70;99.90
22706;DHT22;11520;51.198;4.468;2023-03-01T00:36:37;1.60;99.90
22706;DHT22;11520;51.198;4.468;2023-03-01T00:39:07;1.60;99.90
22706;DHT22;11520;51.198;4.468;2023-03-01T00:41:37;1.60;99.90
22706;DHT22;11520;51.198;4.468;2023-03-01T00:44:03;1.60;99.90
22706;DHT22;11520;51.198;4.468;2023-03-01T00:46:29;1.60;99.90
22706;DHT22;11520;51.198;4.468;2023-03-01T00:48:59;1.50;99.90
22706;DHT22;11520;51.198;4.468;2023-03-01T00:51:27;1.50;99.90
22706;DHT22;11520;51.198;4.468;2023-03-01T00:53:55;1.50;99.90
22706;DHT22;11520;51.198;4.468;2023-03-01T00:56:22;1.50;99.90
22706;DHT22;11520;51.198;4.468;2023-03-01T00:58:48;1.50;99.90
22706;DHT22;11520;51.198;4.468;2023-03-01T01:01:20;1.40;99.90
22706;DHT22;11520;51.198;4.468;2023-03-01T01:03:47;1.50;99.90
22706;DHT22;11520;51.198;4.468;2023-03-01T01:06:14;1.40;99.90
22706;DHT22;11520;51.198;4.468;2023-03-01T01:08:40;1.40;99.90
22706;DHT22;11520;51.198;4.468;2023-03-01T01:11:05;1.20;99.90
22706;DHT22;11520;51.198;4.468;2023-03-01T01:13:35;1.20;99.90
22706;DHT22;11520;51.198;4.468;2023-03-01T01:16:02;1.30;99.90
22706;DHT22;11520;51.198;4.468;2023-03-01T01:18:29;1.20;99.90
22706;DHT22;11520;51.198;4.468;2023-03-01T01:20:55;1.20;99.90
22706;DHT22;11520;51.198;4.468;2023-03-01T01:23:21;1.20;99.90
22706;DHT22;11520;51.198;4.468;2023-03-01T01:25:47;1.20;99.90
22706;DHT22;11520;51.198;4.468;2023-03-01T01:28:12;1.20;99.90
22706;DHT22;11520;51.198;4.468;2023-03-01T01:30:39;1.20;99.90
22706;DHT22;11520;51.198;4.468;2023-03-01T01:33:04;1.20;99.90
22706;DHT22;11520;51.198;4.468;2023-03-01T01:35:30;1.20;99.90
22706;DHT22;11520;51.198;4.468;2023-03-01T01:37:56;1.20;99.90
22706;DHT22;11520;51.198;4.468;2023-03-01T01:40:21;1.20;99.90
22706;DHT22;11520;51.198;4.468;2023-03-01T01:42:47;1.20;99.90
22706;DHT22;11520;51.198;4.468;2023-03-01T01:45:34;1.20;99.90
22706;DHT22;11520;51.198;4.468;2023-03-01T01:48:06;1.20;99.90
22706;DHT22;11520;51.198;4.468;2023-03-01T01:50:39;1.20;99.90
22706;DHT22;11520;51.198;4.468;2023-03-01T01:53:12;1.10;99.90
22706;DHT22;11520;51.198;4.468;2023-03-01T01:55:45;1.10;99.90
22706;DHT22;11520;51.198;4.468;2023-03-01T01:58:16;1.10;99.90
22706;DHT22;11520;51.198;4.468;2023-03-01T02:00:43;1.10;99.90
22706;DHT22;11520;51.198;4.468;2023-03-01T02:03:22;1.10;99.90
22706;DHT22;11520;51.198;4.468;2023-03-01T02:08:21;1.10;99.90
22706;DHT22;11520;51.198;4.468;2023-03-01T02:10:50;1.10;99.90
22706;DHT22;11520;51.198;4.468;2023-03-01T02:13:17;1.10;99.90
22706;DHT22;11520;51.198;4.468;2023-03-01T02:15:44;1.10;99.90
22706;DHT22;11520;51.198;4.468;2023-03-01T02:18:13;0.90;99.90
22706;DHT22;11520;51.198;4.468;2023-03-01T02:23:08;0.90;99.90
22706;DHT22;11520;51.198;4.468;2023-03-01T02:28:44;0.90;99.90
22706;DHT22;11520;51.198;4.468;2023-03-01T02:31:16;1.00;99.90
22706;DHT22;11520;51.198;4.468;2023-03-01T02:34:02;0.90;99.90
22706;DHT22;11520;51.198;4.468;2023-03-01T02:36:34;0.90;99.90
22706;DHT22;11520;51.198;4.468;2023-03-01T02:39:03;0.90;99.90
22706;DHT22;11520;51.198;4.468;2023-03-01T02:41:33;0.80;99.90
22706;DHT22;11520;51.198;4.468;2023-03-01T02:44:17;0.90;99.90
22706;DHT22;11520;51.198;4.468;2023-03-01T02:46:49;0.90;99.90
22706;DHT22;11520;51.198;4.468;2023-03-01T02:49:20;0.80;99.90
22706;DHT22;11520;51.198;4.468;2023-03-01T02:54:40;0.70;99.90
22706;DHT22;11520;51.198;4.468;2023-03-01T02:57:07;0.70;99.90
22706;DHT22;11520;51.198;4.468;2023-03-01T02:59:36;0.70;99.90
22706;DHT22;11520;51.198;4.468;2023-03-01T03:02:16;0.60;99.90
22706;DHT22;11520;51.198;4.468;2023-03-01T03:04:45;0.60;99.90
22706;DHT22;11520;51.198;4.468;2023-03-01T03:07:11;0.60;99.90
22706;DHT22;11520;51.198;4.468;2023-03-01T03:09:38;0.70;99.90
22706;DHT22;11520;51.198;4.468;2023-03-01T03:12:04;0.60;99.90
22706;DHT22;11520;51.198;4.468;2023-03-01T03:14:29;0.50;99.90
22706;DHT22;11520;51.198;4.468;2023-03-01T03:16:55;0.50;99.90
22706;DHT22;11520;51.198;4.468;2023-03-01T03:19:21;0.50;99.90
22706;DHT22;11520;51.198;4.468;2023-03-01T03:21:48;0.50;99.90
22706;DHT22;11520;51.198;4.468;2023-03-01T03:24:14;0.50;99.90
22706;DHT22;11520;51.198;4.468;2023-03-01T03:26:40;0.50;99.90
22706;DHT22;11520;51.198;4.468;2023-03-01T03:29:06;0.50;99.90
22706;DHT22;11520;51.198;4.468;2023-03-01T03:31:31;0.40;99.90
22706;DHT22;11520;51.198;4.468;2023-03-01T03:33:58;0.40;99.90
22706;DHT22;11520;51.198;4.468;2023-03-01T03:36:25;0.50;99.90
22706;DHT22;11520;51.198;4.468;2023-03-01T03:38:52;0.40;99.90
22706;DHT22;11520;51.198;4.468;2023-03-01T03:41:18;0.30;99.90
22706;DHT22;11520;51.198;4.468;2023-03-01T03:43:43;0.40;99.90
22706;DHT22;11520;51.198;4.468;2023-03-01T03:46:10;0.30;99.90
22706;DHT22;11520;51.198;4.468;2023-03-01T03:48:40;0.40;99.90
22706;DHT22;11520;51.198;4.468;2023-03-01T03:51:11;0.50;99.90
22706;DHT22;11520;51.198;4.468;2023-03-01T03:53:37;0.40;99.90
22706;DHT22;11520;51.198;4.468;2023-03-01T03:56:04;0.30;99.90
22706;DHT22;11520;51.198;4.468;2023-03-01T03:58:30;0.20;99.90
22706;DHT22;11520;51.198;4.468;2023-03-01T04:00:57;0.20;99.90
22706;DHT22;11520;51.198;4.468;2023-03-01T04:03:26;0.20;99.90
22706;DHT22;11520;51.198;4.468;2023-03-01T04:05:53;0.30;99.90
22706;DHT22;11520;51.198;4.468;2023-03-01T04:08:21;0.40;99.90
22706;DHT22;11520;51.198;4.468;2023-03-01T04:10:49;0.20;99.90
22706;DHT22;11520;51.198;4.468;2023-03-01T04:13:19;0.30;99.90
22706;DHT22;11520;51.198;4.468;2023-03-01T04:15:53;0.40;99.90
22706;DHT22;11520;51.198;4.468;2023-03-01T04:18:22;0.30;99.90
22706;DHT22;11520;51.198;4.468;2023-03-01T04:20:49;0.20;99.90
22706;DHT22;11520;51.198;4.468;2023-03-01T04:23:18;0.20;99.90
22706;DHT22;11520;51.198;4.468;2023-03-01T04:25:47;0.20;99.90
22706;DHT22;11520;51.198;4.468;2023-03-01T04:28:21;0.20;99.90
22706;DHT22;11520;51.198;4.468;2023-03-01T04:30:54;0.30;99.90
22706;DHT22;11520;51.198;4.468;2023-03-01T04:33:24;0.30;99.90
22706;DHT22;11520;51.198;4.468;2023-03-01T04:35:53;0.20;99.90
22706;DHT22;11520;51.198;4.468;2023-03-01T04:38:20;0.20;99.90
22706;DHT22;11520;51.198;4.468;2023-03-01T04:40:50;0.10;99.90
22706;DHT22;11520;51.198;4.468;2023-03-01T04:43:17;0.10;99.90
22706;DHT22;11520;51.198;4.468;2023-03-01T04:45:43;0.10;99.90
22706;DHT22;11520;51.198;4.468;2023-03-01T04:48:14;0.10;99.90
22706;DHT22;11520;51.198;4.468;2023-03-01T04:50:41;0.10;99.90
22706;DHT22;11520;51.198;4.468;2023-03-01T04:53:08;0.10;99.90
22706;DHT22;11520;51.198;4.468;2023-03-01T04:55:36;0.00;99.90
22706;DHT22;11520;51.198;4.468;2023-03-01T04:58:05;0.00;99.90
22706;DHT22;11520;51.198;4.468;2023-03-01T05:00:32;0.10;99.90
22706;DHT22;11520;51.198;4.468;2023-03-01T05:03:00;0.10;99.90
22706;DHT22;11520;51.198;4.468;2023-03-01T05:05:34;0.10;99.90
22706;DHT22;11520;51.198;4.468;2023-03-01T05:08:02;-0.10;99.90
22706;DHT22;11520;51.198;4.468;2023-03-01T05:10:32;-0.10;99.90
22706;DHT22;11520;51.198;4.468;2023-03-01T05:12:59;-0.10;99.90
22706;DHT22;11520;51.198;4.468;2023-03-01T05:15:27;-0.10;99.90
22706;DHT22;11520;51.198;4.468;2023-03-01T05:17:54;0.00;99.90
22706;DHT22;11520;51.198;4.468;2023-03-01T05:20:21;-0.10;99.90
22706;DHT22;11520;51.198;4.468;2023-03-01T05:22:51;-0.10;99.90
22706;DHT22;11520;51.198;4.468;2023-03-01T05:25:18;0.00;99.90
22706;DHT22;11520;51.198;4.468;2023-03-01T05:27:44;-0.10;99.90
22706;DHT22;11520;51.198;4.468;2023-03-01T05:30:10;-0.10;99.90
22706;DHT22;11520;51.198;4.468;2023-03-01T05:32:46;0.00;99.90
22706;DHT22;11520;51.198;4.468;2023-03-01T05:35:13;0.00;99.90
22706;DHT22;11520;51.198;4.468;2023-03-01T05:37:41;-0.10;99.90
22706;DHT22;11520;51.198;4.468;2023-03-01T05:40:09;-0.20;99.90
22706;DHT22;11520;51.198;4.468;2023-03-01T05:42:42;-0.20;99.90
22706;DHT22;11520;51.198;4.468;2023-03-01T05:45:11;-0.10;99.90
22706;DHT22;11520;51.198;4.468;2023-03-01T05:47:41;-0.10;99.90
22706;DHT22;11520;51.198;4.468;2023-03-01T05:50:23;-0.10;99.90
22706;DHT22;11520;51.198;4.468;2023-03-01T05:53:09;-0.10;99.90
22706;DHT22;11520;51.198;4.468;2023-03-01T05:55:36;0.00;99.90
22706;DHT22;11520;51.198;4.468;2023-03-01T05:58:04;-0.10;99.90
22706;DHT22;11520;51.198;4.468;2023-03-01T06:00:32;-0.20;99.90
22706;DHT22;11520;51.198;4.468;2023-03-01T06:02:58;-0.20;99.90
22706;DHT22;11520;51.198;4.468;2023-03-01T06:05:25;-0.20;99.90
22706;DHT22;11520;51.198;4.468;2023-03-01T06:07:52;-0.20;99.90
22706;DHT22;11520;51.198;4.468;2023-03-01T06:10:20;-0.30;99.90
22706;DHT22;11520;51.198;4.468;2023-03-01T06:12:46;-0.30;99.90
22706;DHT22;11520;51.198;4.468;2023-03-01T06:15:16;-0.30;99.90
22706;DHT22;11520;51.198;4.468;2023-03-01T06:17:44;-0.30;99.90
22706;DHT22;11520;51.198;4.468;2023-03-01T06:20:14;-0.20;99.90
22706;DHT22;11520;51.198;4.468;2023-03-01T06:22:41;-0.30;99.90
22706;DHT22;11520;51.198;4.468;2023-03-01T06:25:08;-0.10;99.90
22706;DHT22;11520;51.198;4.468;2023-03-01T06:27:34;-0.20;99.90
22706;DHT22;11520;51.198;4.468;2023-03-01T06:30:00;-0.10;99.90
22706;DHT22;11520;51.198;4.468;2023-03-01T06:32:26;-0.10;99.90
22706;DHT22;11520;51.198;4.468;2023-03-01T06:34:52;-0.10;99.90
22706;DHT22;11520;51.198;4.468;2023-03-01T06:37:19;-0.10;99.90
22706;DHT22;11520;51.198;4.468;2023-03-01T06:39:45;-0.10;99.90
22706;DHT22;11520;51.198;4.468;2023-03-01T06:42:10;-0.10;99.90
22706;DHT22;11520;51.198;4.468;2023-03-01T06:44:37;0.00;99.90
22706;DHT22;11520;51.198;4.468;2023-03-01T06:47:03;0.00;99.90
22706;DHT22;11520;51.198;4.468;2023-03-01T06:49:28;0.00;99.90
22706;DHT22;11520;51.198;4.468;2023-03-01T06:51:56;0.00;99.90
22706;DHT22;11520;51.198;4.468;2023-03-01T06:54:23;0.00;99.90
22706;DHT22;11520;51.198;4.468;2023-03-01T06:56:49;0.00;99.90
22706;DHT22;11520;51.198;4.468;2023-03-01T06:59:16;0.10;99.90
22706;DHT22;11520;51.198;4.468;2023-03-01T07:01:42;0.10;99.90
22706;DHT22;11520;51.198;4.468;2023-03-01T07:04:10;0.20;99.90
22706;DHT22;11520;51.198;4.468;2023-03-01T07:06:36;0.00;99.90
22706;DHT22;11520;51.198;4.468;2023-03-01T07:09:03;0.00;99.90
22706;DHT22;11520;51.198;4.468;2023-03-01T07:11:30;0.00;99.90
22706;DHT22;11520;51.198;4.468;2023-03-01T07:13:55;0.00;99.90
22706;DHT22;11520;51.198;4.468;2023-03-01T07:16:21;0.10;99.90
22706;DHT22;11520;51.198;4.468;2023-03-01T07:18:47;0.20;99.90
22706;DHT22;11520;51.198;4.468;2023-03-01T07:21:14;0.20;99.90
22706;DHT22;11520;51.198;4.468;2023-03-01T07:23:42;0.20;99.90
22706;DHT22;11520;51.198;4.468;2023-03-01T07:26:08;0.20;99.90
22706;DHT22;11520;51.198;4.468;2023-03-01T07:28:34;0.30;99.90
22706;DHT22;11520;51.198;4.468;2023-03-01T07:31:05;0.30;99.90
22706;DHT22;11520;51.198;4.468;2023-03-01T07:33:32;0.30;99.90
22706;DHT22;11520;51.198;4.468;2023-03-01T07:35:59;0.40;99.90
22706;DHT22;11520;51.198;4.468;2023-03-01T07:38:26;0.40;99.90
22706;DHT22;11520;51.198;4.468;2023-03-01T07:40:52;0.50;99.90
22706;DHT22;11520;51.198;4.468;2023-03-01T07:43:18;0.70;99.90
22706;DHT22;11520;51.198;4.468;2023-03-01T07:45:44;0.70;99.90
22706;DHT22;11520;51.198;4.468;2023-03-01T07:48:10;0.60;99.90
22706;DHT22;11520;51.198;4.468;2023-03-01T07:50:39;0.70;99.90
22706;DHT22;11520;51.198;4.468;2023-03-01T07:53:05;0.80;99.90
22706;DHT22;11520;51.198;4.468;2023-03-01T07:55:32;0.90;99.90
22706;DHT22;11520;51.198;4.468;2023-03-01T07:57:58;1.10;99.90
22706;DHT22;11520;51.198;4.468;2023-03-01T08:00:35;1.10;99.90
22706;DHT22;11520;51.198;4.468;2023-03-01T08:03:01;1.40;99.90
22706;DHT22;11520;51.198;4.468;2023-03-01T08:05:28;1.60;99.90
22706;DHT22;11520;51.198;4.468;2023-03-01T08:07:54;2.20;99.90
22706;DHT22;11520;51.198;4.468;2023-03-01T08:10:21;2.80;99.90
22706;DHT22;11520;51.198;4.468;2023-03-01T08:12:47;3.70;99.90
22706;DHT22;11520;51.198;4.468;2023-03-01T08:15:12;4.40;99.90
22706;DHT22;11520;51.198;4.468;2023-03-01T08:17:39;4.50;99.90
22706;DHT22;11520;51.198;4.468;2023-03-01T08:20:06;5.30;99.90
22706;DHT22;11520;51.198;4.468;2023-03-01T08:22:33;6.00;99.90
22706;DHT22;11520;51.198;4.468;2023-03-01T08:24:58;6.40;99.90
22706;DHT22;11520;51.198;4.468;2023-03-01T08:27:24;7.10;99.90
22706;DHT22;11520;51.198;4.468;2023-03-01T08:29:52;7.10;99.90
22706;DHT22;11520;51.198;4.468;2023-03-01T08:32:19;8.10;99.90
22706;DHT22;11520;51.198;4.468;2023-03-01T08:34:50;6.90;99.90
22706;DHT22;11520;51.198;4.468;2023-03-01T08:37:17;7.20;99.90
22706;DHT22;11520;51.198;4.468;2023-03-01T08:39:43;8.80;99.90
22706;DHT22;11520;51.198;4.468;2023-03-01T08:42:10;9.30;99.90
22706;DHT22;11520;51.198;4.468;2023-03-01T08:44:38;8.70;99.90
22706;DHT22;11520;51.198;4.468;2023-03-01T08:47:03;7.80;99.90
22706;DHT22;11520;51.198;4.468;2023-03-01T08:49:30;7.40;99.90
22706;DHT22;11520;51.198;4.468;2023-03-01T08:51:59;7.50;99.90
22706;DHT22;11520;51.198;4.468;2023-03-01T08:54:25;7.30;99.90
22706;DHT22;11520;51.198;4.468;2023-03-01T08:56:54;7.50;99.90
22706;DHT22;11520;51.198;4.468;2023-03-01T08:59:21;7.80;99.90
22706;DHT22;11520;51.198;4.468;2023-03-01T09:01:48;8.20;99.90
22706;DHT22;11520;51.198;4.468;2023-03-01T09:04:17;8.50;99.90
22706;DHT22;11520;51.198;4.468;2023-03-01T09:09:58;9.00;99.90
22706;DHT22;11520;51.198;4.468;2023-03-01T09:12:27;9.10;99.90
22706;DHT22;11520;51.198;4.468;2023-03-01T09:14:53;9.10;99.90
22706;DHT22;11520;51.198;4.468;2023-03-01T09:17:23;10.80;99.90
22706;DHT22;11520;51.198;4.468;2023-03-01T09:19:49;10.30;97.80
22706;DHT22;11520;51.198;4.468;2023-03-01T09:22:16;9.50;98.70
22706;DHT22;11520;51.198;4.468;2023-03-01T09:24:41;9.40;99.10
22706;DHT22;11520;51.198;4.468;2023-03-01T09:27:15;9.00;99.90
22706;DHT22;11520;51.198;4.468;2023-03-01T09:29:47;8.70;99.60
22706;DHT22;11520;51.198;4.468;2023-03-01T09:32:15;9.10;99.80
22706;DHT22;11520;51.198;4.468;2023-03-01T09:34:42;9.50;98.80
22706;DHT22;11520;51.198;4.468;2023-03-01T09:37:29;10.00;98.60
22706;DHT22;11520;51.198;4.468;2023-03-01T09:39:55;11.70;95.20
22706;DHT22;11520;51.198;4.468;2023-03-01T09:42:21;11.30;93.30
22706;DHT22;11520;51.198;4.468;2023-03-01T09:45:00;11.10;93.50
22706;DHT22;11520;51.198;4.468;2023-03-01T09:47:30;10.80;94.70
22706;DHT22;11520;51.198;4.468;2023-03-01T09:50:13;11.40;92.90
22706;DHT22;11520;51.198;4.468;2023-03-01T09:56:00;10.40;93.40
22706;DHT22;11520;51.198;4.468;2023-03-01T10:07:37;10.70;91.80
22706;DHT22;11520;51.198;4.468;2023-03-01T10:10:48;11.50;92.20
22706;DHT22;11520;51.198;4.468;2023-03-01T10:13:47;11.80;89.50
22706;DHT22;11520;51.198;4.468;2023-03-01T10:19:35;13.10;87.80
22706;DHT22;11520;51.198;4.468;2023-03-01T10:22:27;14.20;81.50
22706;DHT22;11520;51.198;4.468;2023-03-01T10:24:55;14.00;79.10
22706;DHT22;11520;51.198;4.468;2023-03-01T10:32:26;13.60;76.80
22706;DHT22;11520;51.198;4.468;2023-03-01T10:34:54;12.30;80.70
22706;DHT22;11520;51.198;4.468;2023-03-01T10:37:21;13.00;79.40
22706;DHT22;11520;51.198;4.468;2023-03-01T10:40:06;13.20;78.20
22706;DHT22;11520;51.198;4.468;2023-03-01T10:42:57;11.40;81.60
22706;DHT22;11520;51.198;4.468;2023-03-01T10:45:31;12.00;83.40
22706;DHT22;11520;51.198;4.468;2023-03-01T10:48:16;12.00;80.20
22706;DHT22;11520;51.198;4.468;2023-03-01T10:50:45;11.50;81.10
22706;DHT22;11520;51.198;4.468;2023-03-01T10:53:32;11.50;83.20
22706;DHT22;11520;51.198;4.468;2023-03-01T10:56:07;12.10;79.70
22706;DHT22;11520;51.198;4.468;2023-03-01T10:58:35;12.80;78.40
22706;DHT22;11520;51.198;4.468;2023-03-01T11:01:04;11.40;78.70
22706;DHT22;11520;51.198;4.468;2023-03-01T11:03:33;10.50;83.20
22706;DHT22;11520;51.198;4.468;2023-03-01T11:08:48;11.30;81.40
22706;DHT22;11520;51.198;4.468;2023-03-01T11:11:32;11.00;82.30
22706;DHT22;11520;51.198;4.468;2023-03-01T11:14:06;11.10;82.30
22706;DHT22;11520;51.198;4.468;2023-03-01T11:16:38;10.90;80.60
22706;DHT22;11520;51.198;4.468;2023-03-01T11:21:47;13.00;81.20
22706;DHT22;11520;51.198;4.468;2023-03-01T11:24:16;13.10;75.10
22706;DHT22;11520;51.198;4.468;2023-03-01T11:26:47;11.90;77.40
22706;DHT22;11520;51.198;4.468;2023-03-01T11:29:56;11.40;80.70
22706;DHT22;11520;51.198;4.468;2023-03-01T11:32:34;12.60;80.70
22706;DHT22;11520;51.198;4.468;2023-03-01T11:35:16;12.30;74.60
22706;DHT22;11520;51.198;4.468;2023-03-01T11:40:54;10.70;81.30
22706;DHT22;11520;51.198;4.468;2023-03-01T11:43:52;10.70;82.80
22706;DHT22;11520;51.198;4.468;2023-03-01T11:46:48;11.00;81.10
22706;DHT22;11520;51.198;4.468;2023-03-01T11:49:49;10.40;81.00
22706;DHT22;11520;51.198;4.468;2023-03-01T11:55:20;9.80;84.00
22706;DHT22;11520;51.198;4.468;2023-03-01T11:58:14;10.20;85.10
22706;DHT22;11520;51.198;4.468;2023-03-01T12:01:18;10.20;84.50
22706;DHT22;11520;51.198;4.468;2023-03-01T12:09:30;10.80;83.20
22706;DHT22;11520;51.198;4.468;2023-03-01T12:26:24;10.50;83.70
22706;DHT22;11520;51.198;4.468;2023-03-01T12:29:06;9.60;83.00
22706;DHT22;11520;51.198;4.468;2023-03-01T12:37:19;9.60;87.80
22706;DHT22;11520;51.198;4.468;2023-03-01T12:40:01;9.30;86.40
22706;DHT22;11520;51.198;4.468;2023-03-01T12:42:38;10.10;88.50
22706;DHT22;11520;51.198;4.468;2023-03-01T12:53:04;11.00;80.20
22706;DHT22;11520;51.198;4.468;2023-03-01T12:55:35;10.30;82.80
22706;DHT22;11520;51.198;4.468;2023-03-01T13:03:22;9.40;87.40
22706;DHT22;11520;51.198;4.468;2023-03-01T13:06:15;9.50;84.50
22706;DHT22;11520;51.198;4.468;2023-03-01T13:09:03;8.70;85.80
22706;DHT22;11520;51.198;4.468;2023-03-01T13:11:32;8.70;88.00
22706;DHT22;11520;51.198;4.468;2023-03-01T13:16:52;9.30;87.00
22706;DHT22;11520;51.198;4.468;2023-03-01T13:19:22;9.20;85.40
22706;DHT22;11520;51.198;4.468;2023-03-01T13:21:50;8.90;86.00
22706;DHT22;11520;51.198;4.468;2023-03-01T13:24:33;9.20;89.00
22706;DHT22;11520;51.198;4.468;2023-03-01T13:29:54;9.50;88.20
22706;DHT22;11520;51.198;4.468;2023-03-01T13:32:27;9.20;88.20
22706;DHT22;11520;51.198;4.468;2023-03-01T13:37:38;9.10;88.30
22706;DHT22;11520;51.198;4.468;2023-03-01T13:49:09;8.50;90.30
22706;DHT22;11520;51.198;4.468;2023-03-01T13:51:40;8.60;90.20
22706;DHT22;11520;51.198;4.468;2023-03-01T13:54:15;8.40;90.70
22706;DHT22;11520;51.198;4.468;2023-03-01T13:56:41;8.40;90.70
22706;DHT22;11520;51.198;4.468;2023-03-01T13:59:20;8.50;91.20
22706;DHT22;11520;51.198;4.468;2023-03-01T14:01:56;8.40;91.40
22706;DHT22;11520;51.198;4.468;2023-03-01T14:04:23;8.50;91.10
22706;DHT22;11520;51.198;4.468;2023-03-01T14:07:10;8.50;91.40
22706;DHT22;11520;51.198;4.468;2023-03-01T14:09:40;8.50;90.50
22706;DHT22;11520;51.198;4.468;2023-03-01T14:14:57;8.30;90.50
22706;DHT22;11520;51.198;4.468;2023-03-01T14:17:46;8.20;91.10
22706;DHT22;11520;51.198;4.468;2023-03-01T14:20:22;8.00;91.90
22706;DHT22;11520;51.198;4.468;2023-03-01T14:22:51;8.00;91.90
22706;DHT22;11520;51.198;4.468;2023-03-01T14:25:29;7.90;91.80
22706;DHT22;11520;51.198;4.468;2023-03-01T14:28:15;8.00;92.50
22706;DHT22;11520;51.198;4.468;2023-03-01T14:30:46;8.20;93.00
22706;DHT22;11520;51.198;4.468;2023-03-01T14:33:22;8.20;92.20
22706;DHT22;11520;51.198;4.468;2023-03-01T14:38:29;7.90;91.60
22706;DHT22;11520;51.198;4.468;2023-03-01T14:40:59;7.90;92.50
22706;DHT22;11520;51.198;4.468;2023-03-01T14:43:30;8.00;92.20
22706;DHT22;11520;51.198;4.468;2023-03-01T14:45:57;8.00;92.50
22706;DHT22;11520;51.198;4.468;2023-03-01T14:48:45;8.00;92.60
22706;DHT22;11520;51.198;4.468;2023-03-01T14:51:12;7.80;92.50
22706;DHT22;11520;51.198;4.468;2023-03-01T14:53:38;7.80;92.70
22706;DHT22;11520;51.198;4.468;2023-03-01T14:56:04;7.80;92.90
22706;DHT22;11520;51.198;4.468;2023-03-01T14:58:32;7.80;93.40
22706;DHT22;11520;51.198;4.468;2023-03-01T15:01:01;7.80;93.20
22706;DHT22;11520;51.198;4.468;2023-03-01T15:03:37;7.80;93.50
22706;DHT22;11520;51.198;4.468;2023-03-01T15:06:06;7.90;93.50
22706;DHT22;11520;51.198;4.468;2023-03-01T15:08:33;8.00;93.10
22706;DHT22;11520;51.198;4.468;2023-03-01T15:13:43;8.10;93.10
22706;DHT22;11520;51.198;4.468;2023-03-01T15:16:17;8.10;92.90
22706;DHT22;11520;51.198;4.468;2023-03-01T15:18:54;8.20;92.60
22706;DHT22;11520;51.198;4.468;2023-03-01T15:21:26;8.20;92.80
22706;DHT22;11520;51.198;4.468;2023-03-01T15:24:15;8.20;92.50
22706;DHT22;11520;51.198;4.468;2023-03-01T15:26:51;8.10;92.40
22706;DHT22;11520;51.198;4.468;2023-03-01T15:29:26;8.00;92.20
22706;DHT22;11520;51.198;4.468;2023-03-01T15:34:30;7.90;93.00
22706;DHT22;11520;51.198;4.468;2023-03-01T15:36:59;7.80;93.50
22706;DHT22;11520;51.198;4.468;2023-03-01T15:39:33;7.80;93.40
22706;DHT22;11520;51.198;4.468;2023-03-01T15:42:36;7.80;93.30
22706;DHT22;11520;51.198;4.468;2023-03-01T15:47:47;7.70;93.20
22706;DHT22;11520;51.198;4.468;2023-03-01T15:50:30;7.70;93.20
22706;DHT22;11520;51.198;4.468;2023-03-01T15:53:03;7.80;93.40
22706;DHT22;11520;51.198;4.468;2023-03-01T15:55:32;7.70;93.40
22706;DHT22;11520;51.198;4.468;2023-03-01T15:58:04;7.70;94.00
22706;DHT22;11520;51.198;4.468;2023-03-01T16:00:32;7.70;93.80
22706;DHT22;11520;51.198;4.468;2023-03-01T16:02:59;7.70;93.80
22706;DHT22;11520;51.198;4.468;2023-03-01T16:05:28;7.70;93.70
22706;DHT22;11520;51.198;4.468;2023-03-01T16:07:54;7.70;93.70
22706;DHT22;11520;51.198;4.468;2023-03-01T16:10:20;7.60;93.60
22706;DHT22;11520;51.198;4.468;2023-03-01T16:12:47;7.50;93.80
22706;DHT22;11520;51.198;4.468;2023-03-01T16:15:22;7.50;94.20
22706;DHT22;11520;51.198;4.468;2023-03-01T16:17:49;7.50;94.10
22706;DHT22;11520;51.198;4.468;2023-03-01T16:20:15;7.50;94.30
22706;DHT22;11520;51.198;4.468;2023-03-01T16:22:44;7.40;94.30
22706;DHT22;11520;51.198;4.468;2023-03-01T16:25:15;7.30;94.30
22706;DHT22;11520;51.198;4.468;2023-03-01T16:27:46;7.30;94.50
22706;DHT22;11520;51.198;4.468;2023-03-01T16:30:15;7.30;94.50
22706;DHT22;11520;51.198;4.468;2023-03-01T16:32:42;7.30;94.80
22706;DHT22;11520;51.198;4.468;2023-03-01T16:35:10;7.20;94.70
22706;DHT22;11520;51.198;4.468;2023-03-01T16:37:38;7.20;94.60
22706;DHT22;11520;51.198;4.468;2023-03-01T16:40:04;7.20;94.80
22706;DHT22;11520;51.198;4.468;2023-03-01T16:42:35;7.20;95.20
22706;DHT22;11520;51.198;4.468;2023-03-01T16:45:01;7.20;94.90
22706;DHT22;11520;51.198;4.468;2023-03-01T16:47:28;7.10;95.20
22706;DHT22;11520;51.198;4.468;2023-03-01T16:49:54;7.10;95.50
22706;DHT22;11520;51.198;4.468;2023-03-01T16:52:21;7.10;95.80
22706;DHT22;11520;51.198;4.468;2023-03-01T16:54:47;7.10;95.70
22706;DHT22;11520;51.198;4.468;2023-03-01T16:57:14;7.00;95.80
22706;DHT22;11520;51.198;4.468;2023-03-01T16:59:40;7.00;95.80
22706;DHT22;11520;51.198;4.468;2023-03-01T17:02:10;6.90;96.00
22706;DHT22;11520;51.198;4.468;2023-03-01T17:04:36;6.80;96.20
22706;DHT22;11520;51.198;4.468;2023-03-01T17:07:02;6.80;96.60
22706;DHT22;11520;51.198;4.468;2023-03-01T17:09:37;6.70;97.00
22706;DHT22;11520;51.198;4.468;2023-03-01T17:12:04;6.60;96.90
22706;DHT22;11520;51.198;4.468;2023-03-01T17:14:30;6.60;97.30
22706;DHT22;11520;51.198;4.468;2023-03-01T17:16:57;6.50;97.50
22706;DHT22;11520;51.198;4.468;2023-03-01T17:19:22;6.50;97.90
22706;DHT22;11520;51.198;4.468;2023-03-01T17:21:49;6.50;98.40
22706;DHT22;11520;51.198;4.468;2023-03-01T17:24:17;6.50;98.70
22706;DHT22;11520;51.198;4.468;2023-03-01T17:26:43;6.40;99.20
22706;DHT22;11520;51.198;4.468;2023-03-01T17:29:08;6.40;99.50
22706;DHT22;11520;51.198;4.468;2023-03-01T17:31:34;6.40;99.80
22706;DHT22;11520;51.198;4.468;2023-03-01T17:34:00;6.30;99.90
22706;DHT22;11520;51.198;4.468;2023-03-01T17:36:25;6.30;99.90
22706;DHT22;11520;51.198;4.468;2023-03-01T17:38:52;6.20;99.90
22706;DHT22;11520;51.198;4.468;2023-03-01T17:41:19;6.20;99.90
22706;DHT22;11520;51.198;4.468;2023-03-01T17:43:48;6.10;99.90
22706;DHT22;11520;51.198;4.468;2023-03-01T17:46:13;6.00;99.90
22706;DHT22;11520;51.198;4.468;2023-03-01T17:48:39;6.00;99.90
22706;DHT22;11520;51.198;4.468;2023-03-01T17:51:07;5.90;99.90
22706;DHT22;11520;51.198;4.468;2023-03-01T17:53:34;5.90;99.90
22706;DHT22;11520;51.198;4.468;2023-03-01T17:56:03;5.90;99.90